Time,TemperatureF,DewpointF,PressureIn,WindDirection,WindDirectionDegrees,WindSpeedMPH,WindSpeedGustMPH,Humidity,HourlyPrecipIn,Conditions,Clouds,dailyrainin,SoftwareType,DateUTC
2013-09-07 00:01:00,69.8,61.1,30.02,North,0,0.0,0.0,74,0.00,,,0.00,WUHU216HW,2013-09-07 04:01:00,
2013-09-07 00:02:00,69.8,61.1,30.02,North,0,0.0,0.0,74,0.00,,,0.00,WUHU216HW,2013-09-07 04:02:00,
2013-09-07 00:07:00,69.7,60.9,30.02,North,0,0.0,0.0,74,0.00,,,0.00,WUHU216HW,2013-09-07 04:07:00,
2013-09-07 00:12:00,69.7,61.3,30.01,North,0,0.0,0.0,75,0.00,,,0.00,WUHU216HW,2013-09-07 04:12:00,
2013-09-07 00:18:00,69.5,61.1,30.02,North,0,0.0,0.0,75,0.00,,,0.00,WUHU216HW,2013-09-07 04:18:00,
2013-09-07 00:23:00,69.5,61.1,30.02,North,0,0.0,0.0,75,0.00,,,0.00,WUHU216HW,2013-09-07 04:23:00,
2013-09-07 00:28:00,69.5,61.1,30.01,North,0,0.0,0.0,75,0.00,,,0.00,WUHU216HW,2013-09-07 04:28:00,
2013-09-07 00:33:00,69.5,61.1,30.02,North,0,0.0,0.0,75,0.00,,,0.00,WUHU216HW,2013-09-07 04:33:00,
2013-09-07 00:38:00,69.3,61.0,30.01,North,0,0.0,0.0,75,0.00,,,0.00,WUHU216HW,2013-09-07 04:38:00,
2013-09-07 00:43:00,69.3,61.0,30.01,North,0,0.0,0.0,75,0.00,,,0.00,WUHU216HW,2013-09-07 04:43:00,
2013-09-07 00:48:00,69.1,60.9,30.02,North,0,0.0,0.0,75,0.00,,,0.00,WUHU216HW,2013-09-07 04:48:00,
2013-09-07 00:53:00,69.3,61.0,30.01,North,0,0.0,0.0,75,0.00,,,0.00,WUHU216HW,2013-09-07 04:53:00,
2013-09-07 00:58:00,69.3,61.0,30.02,North,0,0.0,0.0,75,0.00,,,0.00,WUHU216HW,2013-09-07 04:58:00,
2013-09-07 01:03:00,69.3,61.0,30.02,North,0,0.0,0.0,75,0.00,,,0.00,WUHU216HW,2013-09-07 05:03:00,
2013-09-07 01:09:00,69.3,61.0,30.01,North,0,0.0,0.0,75,0.00,,,0.00,WUHU216HW,2013-09-07 05:09:00,
2013-09-07 01:14:00,69.3,61.0,30.02,North,0,0.0,0.0,75,0.00,,,0.00,WUHU216HW,2013-09-07 05:14:00,
2013-09-07 01:19:00,69.3,61.0,30.02,North,0,0.0,0.0,75,0.00,,,0.00,WUHU216HW,2013-09-07 05:19:00,
2013-09-07 01:24:00,69.3,61.0,30.02,North,0,0.0,0.0,75,0.00,,,0.00,WUHU216HW,2013-09-07 05:24:00,
2013-09-07 01:29:00,69.3,61.0,30.02,North,0,0.0,0.0,75,0.00,,,0.00,WUHU216HW,2013-09-07 05:29:00,
2013-09-07 01:34:00,69.1,60.9,30.01,North,0,0.0,0.0,75,0.00,,,0.00,WUHU216HW,2013-09-07 05:34:00,
2013-09-07 01:39:00,69.1,60.9,30.01,North,0,0.0,0.0,75,0.00,,,0.00,WUHU216HW,2013-09-07 05:39:00,
2013-09-07 01:44:00,69.1,60.9,30.01,North,0,0.0,0.0,75,0.00,,,0.00,WUHU216HW,2013-09-07 05:44:00,
2013-09-07 01:49:00,69.1,60.9,30.01,North,0,0.0,0.0,75,0.00,,,0.00,WUHU216HW,2013-09-07 05:49:00,
2013-09-07 01:54:00,68.9,60.7,30.01,North,0,0.0,0.0,75,0.00,,,0.00,WUHU216HW,2013-09-07 05:54:00,
2013-09-07 01:59:00,68.9,60.7,30.01,North,0,0.0,0.0,75,0.00,,,0.00,WUHU216HW,2013-09-07 05:59:00,
2013-09-07 02:05:00,68.8,60.5,30.01,North,0,0.0,0.0,75,0.00,,,0.00,WUHU216HW,2013-09-07 06:05:00,
2013-09-07 02:10:00,68.8,60.5,30.01,North,0,0.0,0.0,75,0.00,,,0.00,WUHU216HW,2013-09-07 06:10:00,
2013-09-07 02:15:00,68.8,60.5,30.01,North,0,0.0,0.0,75,0.00,,,0.00,WUHU216HW,2013-09-07 06:15:00,
2013-09-07 02:20:00,68.6,60.3,30.01,North,0,0.0,0.0,75,0.00,,,0.00,WUHU216HW,2013-09-07 06:20:00,
2013-09-07 02:25:00,68.6,60.3,30.00,North,0,0.0,0.0,75,0.00,,,0.00,WUHU216HW,2013-09-07 06:25:00,
2013-09-07 02:30:00,68.4,60.2,30.00,North,0,0.0,0.0,75,0.00,,,0.00,WUHU216HW,2013-09-07 06:30:00,
2013-09-07 02:35:00,68.4,60.6,30.00,North,0,0.0,0.0,76,0.00,,,0.00,WUHU216HW,2013-09-07 06:35:00,
2013-09-07 02:40:00,68.2,60.4,30.00,North,0,0.0,0.0,76,0.00,,,0.00,WUHU216HW,2013-09-07 06:40:00,
2013-09-07 02:45:00,68.0,60.2,30.00,North,0,0.0,0.0,76,0.00,,,0.00,WUHU216HW,2013-09-07 06:45:00,
2013-09-07 02:50:00,68.0,60.2,30.00,North,0,0.0,0.0,76,0.00,,,0.00,WUHU216HW,2013-09-07 06:50:00,
2013-09-07 02:55:00,67.9,60.0,30.00,North,0,0.0,0.0,76,0.00,,,0.00,WUHU216HW,2013-09-07 06:55:00,
2013-09-07 03:01:00,67.7,59.9,30.00,North,0,0.0,0.0,76,0.00,,,0.00,WUHU216HW,2013-09-07 07:01:00,
2013-09-07 03:06:00,67.7,60.2,30.00,North,0,0.0,0.0,77,0.00,,,0.00,WUHU216HW,2013-09-07 07:06:00,
2013-09-07 03:11:00,67.5,60.0,30.00,North,0,0.0,0.0,77,0.00,,,0.00,WUHU216HW,2013-09-07 07:11:00,
2013-09-07 03:16:00,67.3,59.9,30.00,North,0,0.0,0.0,77,0.00,,,0.00,WUHU216HW,2013-09-07 07:16:00,
2013-09-07 03:21:00,67.3,59.9,30.00,North,0,0.0,0.0,77,0.00,,,0.00,WUHU216HW,2013-09-07 07:21:00,
2013-09-07 03:26:00,67.1,59.7,30.00,North,0,0.0,0.0,77,0.00,,,0.00,WUHU216HW,2013-09-07 07:26:00,
2013-09-07 03:31:00,67.0,59.5,30.00,North,0,0.0,0.0,77,0.00,,,0.00,WUHU216HW,2013-09-07 07:31:00,
2013-09-07 03:36:00,66.8,59.3,30.00,North,0,0.0,0.0,77,0.00,,,0.00,WUHU216HW,2013-09-07 07:36:00,
2013-09-07 03:41:00,66.8,59.3,30.00,North,0,0.0,0.0,77,0.00,,,0.00,WUHU216HW,2013-09-07 07:41:00,
2013-09-07 03:46:00,66.6,59.1,30.00,North,0,0.0,0.0,77,0.00,,,0.00,WUHU216HW,2013-09-07 07:46:00,
2013-09-07 03:51:00,66.4,59.0,30.00,North,0,0.0,0.0,77,0.00,,,0.00,WUHU216HW,2013-09-07 07:51:00,
2013-09-07 03:57:00,66.4,59.0,30.00,North,0,0.0,0.0,77,0.00,,,0.00,WUHU216HW,2013-09-07 07:57:00,
2013-09-07 04:02:00,66.2,59.2,30.00,North,0,0.0,0.0,78,0.00,,,0.00,WUHU216HW,2013-09-07 08:02:00,
2013-09-07 04:07:00,66.1,59.1,30.00,North,0,0.0,0.0,78,0.00,,,0.00,WUHU216HW,2013-09-07 08:07:00,
2013-09-07 04:12:00,66.1,59.1,30.00,North,0,0.0,0.0,78,0.00,,,0.00,WUHU216HW,2013-09-07 08:12:00,
2013-09-07 04:17:00,65.9,58.9,30.00,North,0,0.0,0.0,78,0.00,,,0.00,WUHU216HW,2013-09-07 08:17:00,
2013-09-07 04:22:00,65.9,59.2,30.00,North,0,0.0,0.0,79,0.00,,,0.00,WUHU216HW,2013-09-07 08:22:00,
2013-09-07 04:27:00,65.7,59.1,30.00,North,0,0.0,0.0,79,0.00,,,0.00,WUHU216HW,2013-09-07 08:27:00,
2013-09-07 04:32:00,65.7,59.1,30.00,North,0,0.0,0.0,79,0.00,,,0.00,WUHU216HW,2013-09-07 08:32:00,
2013-09-07 04:37:00,65.5,58.9,30.00,North,0,0.0,0.0,79,0.00,,,0.00,WUHU216HW,2013-09-07 08:37:00,
2013-09-07 04:42:00,65.5,58.9,30.00,North,0,0.0,0.0,79,0.00,,,0.00,WUHU216HW,2013-09-07 08:42:00,
2013-09-07 04:47:00,65.3,59.0,30.00,North,0,0.0,0.0,80,0.00,,,0.00,WUHU216HW,2013-09-07 08:47:00,
2013-09-07 04:52:00,65.3,59.0,30.00,North,0,0.0,0.0,80,0.00,,,0.00,WUHU216HW,2013-09-07 08:52:00,
2013-09-07 04:57:00,65.2,58.9,30.00,North,0,0.0,0.0,80,0.00,,,0.00,WUHU216HW,2013-09-07 08:57:00,
2013-09-07 05:03:00,65.2,58.9,30.00,North,0,0.0,0.0,80,0.00,,,0.00,WUHU216HW,2013-09-07 09:03:00,
2013-09-07 05:08:00,65.2,58.9,30.00,North,0,0.0,0.0,80,0.00,,,0.00,WUHU216HW,2013-09-07 09:08:00,
2013-09-07 05:13:00,65.2,58.9,30.00,North,0,0.0,0.0,80,0.00,,,0.00,WUHU216HW,2013-09-07 09:13:00,
2013-09-07 05:18:00,65.2,58.9,30.00,North,0,0.0,0.0,80,0.00,,,0.00,WUHU216HW,2013-09-07 09:18:00,
2013-09-07 05:23:00,65.0,58.7,30.00,North,0,0.0,0.0,80,0.00,,,0.00,WUHU216HW,2013-09-07 09:23:00,
2013-09-07 05:28:00,65.0,58.7,30.00,North,0,0.0,0.0,80,0.00,,,0.00,WUHU216HW,2013-09-07 09:28:00,
2013-09-07 05:33:00,65.0,58.7,30.01,North,0,0.0,0.0,80,0.00,,,0.00,WUHU216HW,2013-09-07 09:33:00,
2013-09-07 05:38:00,64.8,58.5,30.01,North,0,0.0,0.0,80,0.00,,,0.00,WUHU216HW,2013-09-07 09:38:00,
2013-09-07 05:43:00,64.8,58.9,30.01,North,0,0.0,0.0,81,0.00,,,0.00,WUHU216HW,2013-09-07 09:43:00,
2013-09-07 05:48:00,64.8,58.9,30.01,North,0,0.0,0.0,81,0.00,,,0.00,WUHU216HW,2013-09-07 09:48:00,
2013-09-07 05:53:00,64.8,58.9,30.02,North,0,0.0,0.0,81,0.00,,,0.00,WUHU216HW,2013-09-07 09:53:00,
2013-09-07 05:58:00,64.8,58.9,30.02,North,0,0.0,0.0,81,0.00,,,0.00,WUHU216HW,2013-09-07 09:58:00,
2013-09-07 06:03:00,64.6,58.7,30.02,North,0,0.0,0.0,81,0.00,,,0.00,WUHU216HW,2013-09-07 10:03:00,
2013-09-07 06:08:00,64.8,59.2,30.02,North,0,0.0,0.0,82,0.00,,,0.00,WUHU216HW,2013-09-07 10:08:00,
2013-09-07 06:14:00,64.8,59.2,30.02,North,0,0.0,0.0,82,0.00,,,0.00,WUHU216HW,2013-09-07 10:14:00,
2013-09-07 06:19:00,64.8,59.2,30.02,North,0,0.0,0.0,82,0.00,,,0.00,WUHU216HW,2013-09-07 10:19:00,
2013-09-07 06:24:00,64.8,59.2,30.02,North,0,0.0,0.0,82,0.00,,,0.00,WUHU216HW,2013-09-07 10:24:00,
2013-09-07 06:29:00,64.8,59.2,30.02,North,0,0.0,0.0,82,0.00,,,0.00,WUHU216HW,2013-09-07 10:29:00,
2013-09-07 06:34:00,64.8,59.2,30.02,North,0,0.0,0.0,82,0.00,,,0.00,WUHU216HW,2013-09-07 10:34:00,
2013-09-07 06:39:00,65.0,59.3,30.02,North,0,0.0,0.0,82,0.00,,,0.00,WUHU216HW,2013-09-07 10:39:00,
2013-09-07 06:44:00,65.0,59.3,30.02,North,0,0.0,0.0,82,0.00,,,0.00,WUHU216HW,2013-09-07 10:44:00,
2013-09-07 06:49:00,65.2,59.5,30.03,North,0,0.0,0.0,82,0.00,,,0.00,WUHU216HW,2013-09-07 10:49:00,
2013-09-07 06:54:00,65.2,59.5,30.03,North,0,0.0,0.0,82,0.00,,,0.00,WUHU216HW,2013-09-07 10:54:00,
2013-09-07 06:59:00,65.2,59.5,30.03,North,0,0.0,0.0,82,0.00,,,0.00,WUHU216HW,2013-09-07 10:59:00,
2013-09-07 07:04:00,65.2,59.5,30.02,North,0,0.0,0.0,82,0.00,,,0.00,WUHU216HW,2013-09-07 11:04:00,
2013-09-07 07:09:00,65.2,59.5,30.02,North,0,0.0,0.0,82,0.00,,,0.00,WUHU216HW,2013-09-07 11:09:00,
2013-09-07 07:14:00,65.2,59.9,30.02,North,0,0.0,0.0,83,0.00,,,0.00,WUHU216HW,2013-09-07 11:14:00,
2013-09-07 07:20:00,65.2,59.9,30.02,North,0,0.0,0.0,83,0.00,,,0.00,WUHU216HW,2013-09-07 11:20:00,
2013-09-07 07:25:00,65.2,59.9,30.03,North,0,0.0,0.0,83,0.00,,,0.00,WUHU216HW,2013-09-07 11:25:00,
2013-09-07 07:30:00,65.2,59.9,30.03,North,0,0.0,0.0,83,0.00,,,0.00,WUHU216HW,2013-09-07 11:30:00,
2013-09-07 07:35:00,65.2,59.9,30.03,North,0,0.0,0.0,83,0.00,,,0.00,WUHU216HW,2013-09-07 11:35:00,
2013-09-07 07:40:00,65.2,59.9,30.04,North,0,0.0,0.0,83,0.00,,,0.00,WUHU216HW,2013-09-07 11:40:00,
2013-09-07 07:45:00,65.2,59.9,30.04,North,0,0.0,0.0,83,0.00,,,0.00,WUHU216HW,2013-09-07 11:45:00,
2013-09-07 07:50:00,65.3,60.0,30.04,North,0,0.0,0.0,83,0.00,,,0.00,WUHU216HW,2013-09-07 11:50:00,
2013-09-07 07:55:00,65.3,60.0,30.04,North,0,0.0,0.0,83,0.00,,,0.00,WUHU216HW,2013-09-07 11:55:00,
2013-09-07 08:00:00,65.5,60.6,30.04,North,0,0.0,0.0,84,0.00,,,0.00,WUHU216HW,2013-09-07 12:00:00,
2013-09-07 08:05:00,65.5,60.6,30.04,North,0,0.0,0.0,84,0.00,,,0.00,WUHU216HW,2013-09-07 12:05:00,
2013-09-07 08:10:00,65.5,60.6,30.04,North,0,0.0,0.0,84,0.00,,,0.00,WUHU216HW,2013-09-07 12:10:00,
2013-09-07 08:15:00,65.7,60.8,30.04,North,0,0.0,0.0,84,0.00,,,0.00,WUHU216HW,2013-09-07 12:15:00,
2013-09-07 08:20:00,65.7,60.4,30.04,North,0,0.0,0.0,83,0.00,,,0.00,WUHU216HW,2013-09-07 12:20:00,
2013-09-07 08:26:00,65.9,60.6,30.03,North,0,0.0,0.0,83,0.00,,,0.00,WUHU216HW,2013-09-07 12:26:00,
2013-09-07 08:31:00,65.9,60.6,30.03,North,0,0.0,0.0,83,0.00,,,0.00,WUHU216HW,2013-09-07 12:31:00,
2013-09-07 08:36:00,66.2,61.2,30.03,North,0,0.0,0.0,84,0.00,,,0.00,WUHU216HW,2013-09-07 12:36:00,
2013-09-07 08:41:00,66.4,61.4,30.03,North,0,0.0,0.0,84,0.00,,,0.00,WUHU216HW,2013-09-07 12:41:00,
2013-09-07 08:46:00,66.6,61.3,30.04,North,0,0.0,0.0,83,0.00,,,0.00,WUHU216HW,2013-09-07 12:46:00,
2013-09-07 08:51:00,67.0,61.7,30.04,North,0,0.0,0.0,83,0.00,,,0.00,WUHU216HW,2013-09-07 12:51:00,
2013-09-07 08:56:00,67.0,61.7,30.04,North,0,0.0,0.0,83,0.00,,,0.00,WUHU216HW,2013-09-07 12:56:00,
2013-09-07 09:01:00,67.3,62.0,30.04,North,0,0.0,0.0,83,0.00,,,0.00,WUHU216HW,2013-09-07 13:01:00,
2013-09-07 09:06:00,67.5,62.2,30.04,North,0,0.0,0.0,83,0.00,,,0.00,WUHU216HW,2013-09-07 13:06:00,
2013-09-07 09:11:00,67.9,62.6,30.04,North,0,0.0,0.0,83,0.00,,,0.00,WUHU216HW,2013-09-07 13:11:00,
2013-09-07 09:16:00,68.0,62.4,30.04,North,0,0.0,0.0,82,0.00,,,0.00,WUHU216HW,2013-09-07 13:16:00,
2013-09-07 09:22:00,68.0,62.4,30.04,North,0,0.0,0.0,82,0.00,,,0.00,WUHU216HW,2013-09-07 13:22:00,
2013-09-07 09:27:00,68.2,62.6,30.04,North,0,0.0,0.0,82,0.00,,,0.00,WUHU216HW,2013-09-07 13:27:00,
2013-09-07 09:32:00,68.6,62.9,30.04,North,0,0.0,0.0,82,0.00,,,0.00,WUHU216HW,2013-09-07 13:32:00,
2013-09-07 09:37:00,68.8,63.1,30.04,North,0,0.0,0.0,82,0.00,,,0.00,WUHU216HW,2013-09-07 13:37:00,
2013-09-07 09:42:00,69.3,63.5,30.04,North,0,0.0,0.0,82,0.00,,,0.00,WUHU216HW,2013-09-07 13:42:00,
2013-09-07 09:47:00,69.8,64.1,30.04,North,0,0.0,0.0,82,0.00,,,0.00,WUHU216HW,2013-09-07 13:47:00,
2013-09-07 09:52:00,70.4,64.6,30.04,North,0,0.0,0.0,82,0.00,,,0.00,WUHU216HW,2013-09-07 13:52:00,
2013-09-07 09:57:00,71.3,65.2,30.04,North,0,0.0,0.0,81,0.00,,,0.00,WUHU216HW,2013-09-07 13:57:00,
2013-09-07 10:02:00,71.8,65.3,30.04,North,0,0.0,0.0,80,0.00,,,0.00,WUHU216HW,2013-09-07 14:02:00,
2013-09-07 10:07:00,72.7,66.2,30.04,North,0,0.0,0.0,80,0.00,,,0.00,WUHU216HW,2013-09-07 14:07:00,
2013-09-07 10:12:00,73.3,66.4,30.04,North,0,0.0,0.0,79,0.00,,,0.00,WUHU216HW,2013-09-07 14:12:00,
2013-09-07 10:17:00,73.3,66.4,30.04,North,0,0.0,0.0,79,0.00,,,0.00,WUHU216HW,2013-09-07 14:17:00,
2013-09-07 10:22:00,73.4,66.6,30.04,North,0,0.0,0.0,79,0.00,,,0.00,WUHU216HW,2013-09-07 14:22:00,
2013-09-07 10:27:00,74.0,67.2,30.04,North,0,0.0,0.0,79,0.00,,,0.00,WUHU216HW,2013-09-07 14:27:00,
2013-09-07 10:32:00,74.5,67.2,30.04,North,0,0.0,0.0,78,0.00,,,0.00,WUHU216HW,2013-09-07 14:32:00,
2013-09-07 10:38:00,74.9,67.2,30.04,North,0,0.0,0.0,77,0.00,,,0.00,WUHU216HW,2013-09-07 14:38:00,
2013-09-07 10:43:00,75.1,67.0,30.04,North,0,0.0,0.0,76,0.00,,,0.00,WUHU216HW,2013-09-07 14:43:00,
2013-09-07 10:48:00,75.2,67.1,30.04,North,0,0.0,0.0,76,0.00,,,0.00,WUHU216HW,2013-09-07 14:48:00,
2013-09-07 10:53:00,75.6,67.5,30.03,North,0,0.0,0.0,76,0.00,,,0.00,WUHU216HW,2013-09-07 14:53:00,
2013-09-07 10:58:00,76.0,67.9,30.03,North,0,0.0,0.0,76,0.00,,,0.00,WUHU216HW,2013-09-07 14:58:00,
2013-09-07 11:03:00,76.3,67.8,30.03,North,0,0.0,0.0,75,0.00,,,0.00,WUHU216HW,2013-09-07 15:03:00,
2013-09-07 11:08:00,76.7,68.1,30.04,North,0,0.0,0.0,75,0.00,,,0.00,WUHU216HW,2013-09-07 15:08:00,
2013-09-07 11:13:00,76.9,68.3,30.04,North,0,0.0,0.0,75,0.00,,,0.00,WUHU216HW,2013-09-07 15:13:00,
2013-09-07 11:18:00,76.9,68.0,30.04,North,0,0.0,0.0,74,0.00,,,0.00,WUHU216HW,2013-09-07 15:18:00,
2013-09-07 11:24:00,76.5,67.6,30.03,North,0,0.0,0.0,74,0.00,,,0.00,WUHU216HW,2013-09-07 15:24:00,
2013-09-07 11:29:00,76.5,68.0,30.03,North,0,0.0,0.0,75,0.00,,,0.00,WUHU216HW,2013-09-07 15:29:00,
2013-09-07 11:34:00,76.9,68.3,30.03,North,0,0.0,0.0,75,0.00,,,0.00,WUHU216HW,2013-09-07 15:34:00,
2013-09-07 11:39:00,77.2,67.9,30.03,North,0,0.0,0.0,73,0.00,,,0.00,WUHU216HW,2013-09-07 15:39:00,
2013-09-07 11:44:00,77.6,67.5,30.03,North,0,0.0,0.0,71,0.00,,,0.00,WUHU216HW,2013-09-07 15:44:00,
2013-09-07 11:49:00,77.8,67.6,30.02,North,0,0.0,0.0,71,0.00,,,0.00,WUHU216HW,2013-09-07 15:49:00,
2013-09-07 11:54:00,78.1,67.6,30.02,North,0,0.0,0.0,70,0.00,,,0.00,WUHU216HW,2013-09-07 15:54:00,
2013-09-07 11:59:00,78.5,67.9,30.02,North,0,0.0,0.0,70,0.00,,,0.00,WUHU216HW,2013-09-07 15:59:00,
2013-09-07 12:04:00,78.8,67.8,30.02,North,0,0.0,0.0,69,0.00,,,0.00,WUHU216HW,2013-09-07 16:04:00,
2013-09-07 12:10:00,79.6,68.5,30.02,North,0,0.0,0.0,69,0.00,,,0.00,WUHU216HW,2013-09-07 16:10:00,
2013-09-07 12:15:00,79.6,68.0,30.01,North,0,0.0,0.0,68,0.00,,,0.00,WUHU216HW,2013-09-07 16:15:00,
2013-09-07 12:20:00,79.4,67.9,30.01,North,0,0.0,0.0,68,0.00,,,0.00,WUHU216HW,2013-09-07 16:20:00,
2013-09-07 12:25:00,79.2,67.7,30.01,North,0,0.0,0.0,68,0.00,,,0.00,WUHU216HW,2013-09-07 16:25:00,
2013-09-07 12:30:00,79.2,67.2,30.01,North,0,0.0,0.0,67,0.00,,,0.00,WUHU216HW,2013-09-07 16:30:00,
2013-09-07 12:35:00,79.4,67.9,30.01,North,0,0.0,0.0,68,0.00,,,0.00,WUHU216HW,2013-09-07 16:35:00,
2013-09-07 12:40:00,79.2,67.2,30.00,North,0,0.0,0.0,67,0.00,,,0.00,WUHU216HW,2013-09-07 16:40:00,
2013-09-07 12:45:00,79.6,67.6,30.00,North,0,0.0,0.0,67,0.00,,,0.00,WUHU216HW,2013-09-07 16:45:00,
2013-09-07 12:50:00,79.9,67.5,30.00,North,0,0.0,0.0,66,0.00,,,0.00,WUHU216HW,2013-09-07 16:50:00,
2013-09-07 12:55:00,80.3,67.9,30.00,North,0,0.0,0.0,66,0.00,,,0.00,WUHU216HW,2013-09-07 16:55:00,
2013-09-07 13:00:00,80.8,68.4,29.99,North,0,0.0,0.0,66,0.00,,,0.00,WUHU216HW,2013-09-07 17:00:00,
2013-09-07 13:05:00,81.4,68.4,29.99,North,0,0.0,0.0,65,0.00,,,0.00,WUHU216HW,2013-09-07 17:05:00,
2013-09-07 13:10:00,81.5,68.1,29.99,North,0,0.0,0.0,64,0.00,,,0.00,WUHU216HW,2013-09-07 17:10:00,
2013-09-07 13:15:00,81.7,68.3,29.99,North,0,0.0,0.0,64,0.00,,,0.00,WUHU216HW,2013-09-07 17:15:00,
2013-09-07 13:20:00,81.5,67.7,29.99,North,0,0.0,0.0,63,0.00,,,0.00,WUHU216HW,2013-09-07 17:20:00,
2013-09-07 13:25:00,81.2,67.8,29.99,North,0,0.0,0.0,64,0.00,,,0.00,WUHU216HW,2013-09-07 17:25:00,
2013-09-07 13:30:00,81.2,67.3,29.99,North,0,0.0,0.0,63,0.00,,,0.00,WUHU216HW,2013-09-07 17:30:00,
2013-09-07 13:35:00,81.4,68.0,29.99,North,0,0.0,0.0,64,0.00,,,0.00,WUHU216HW,2013-09-07 17:35:00,
2013-09-07 13:41:00,81.9,68.1,29.99,North,0,0.0,0.0,63,0.00,,,0.00,WUHU216HW,2013-09-07 17:41:00,
2013-09-07 13:46:00,82.4,68.5,29.99,North,0,0.0,0.0,63,0.00,,,0.00,WUHU216HW,2013-09-07 17:46:00,
2013-09-07 13:51:00,82.8,68.4,29.98,North,0,0.0,0.0,62,0.00,,,0.00,WUHU216HW,2013-09-07 17:51:00,
2013-09-07 13:56:00,83.0,69.0,29.98,North,0,0.0,0.0,63,0.00,,,0.00,WUHU216HW,2013-09-07 17:56:00,
2013-09-07 14:01:00,82.8,68.4,29.98,North,0,0.0,0.0,62,0.00,,,0.00,WUHU216HW,2013-09-07 18:01:00,
2013-09-07 14:06:00,82.6,67.8,29.98,North,0,0.0,0.0,61,0.00,,,0.00,WUHU216HW,2013-09-07 18:06:00,
2013-09-07 14:11:00,82.6,67.8,29.97,North,0,0.0,0.0,61,0.00,,,0.00,WUHU216HW,2013-09-07 18:11:00,
2013-09-07 14:16:00,82.8,68.0,29.97,North,0,0.0,0.0,61,0.00,,,0.00,WUHU216HW,2013-09-07 18:16:00,
2013-09-07 14:21:00,83.2,68.8,29.97,North,0,0.0,0.0,62,0.00,,,0.00,WUHU216HW,2013-09-07 18:21:00,
2013-09-07 14:26:00,83.2,68.8,29.97,North,0,0.0,0.0,62,0.00,,,0.00,WUHU216HW,2013-09-07 18:26:00,
2013-09-07 14:32:00,83.5,69.1,29.97,North,0,0.0,0.0,62,0.00,,,0.00,WUHU216HW,2013-09-07 18:32:00,
2013-09-07 14:37:00,83.7,68.4,29.96,North,0,0.0,0.0,60,0.00,,,0.00,WUHU216HW,2013-09-07 18:37:00,
2013-09-07 14:42:00,83.7,68.4,29.96,North,0,0.0,0.0,60,0.00,,,0.00,WUHU216HW,2013-09-07 18:42:00,
2013-09-07 14:47:00,83.9,68.6,29.96,North,0,0.0,0.0,60,0.00,,,0.00,WUHU216HW,2013-09-07 18:47:00,
2013-09-07 14:52:00,83.9,68.6,29.96,North,0,0.0,0.0,60,0.00,,,0.00,WUHU216HW,2013-09-07 18:52:00,
2013-09-07 14:57:00,84.1,68.2,29.95,North,0,0.0,0.0,59,0.00,,,0.00,WUHU216HW,2013-09-07 18:57:00,
2013-09-07 15:02:00,84.2,68.4,29.95,North,0,0.0,0.0,59,0.00,,,0.00,WUHU216HW,2013-09-07 19:02:00,
2013-09-07 15:07:00,84.2,68.4,29.95,North,0,0.0,0.0,59,0.00,,,0.00,WUHU216HW,2013-09-07 19:07:00,
2013-09-07 15:12:00,84.4,68.0,29.95,North,0,0.0,0.0,58,0.00,,,0.00,WUHU216HW,2013-09-07 19:12:00,
2013-09-07 15:18:00,84.4,67.5,29.95,North,0,0.0,0.0,57,0.00,,,0.00,WUHU216HW,2013-09-07 19:18:00,
2013-09-07 15:23:00,84.2,67.9,29.94,North,0,0.0,0.0,58,0.00,,,0.00,WUHU216HW,2013-09-07 19:23:00,
2013-09-07 15:28:00,84.4,68.6,29.94,North,0,0.0,0.0,59,0.00,,,0.00,WUHU216HW,2013-09-07 19:28:00,
2013-09-07 15:33:00,84.6,67.7,29.94,North,0,0.0,0.0,57,0.00,,,0.00,WUHU216HW,2013-09-07 19:33:00,
2013-09-07 15:38:00,84.4,68.0,29.94,North,0,0.0,0.0,58,0.00,,,0.00,WUHU216HW,2013-09-07 19:38:00,
2013-09-07 15:43:00,84.6,67.7,29.93,North,0,0.0,0.0,57,0.00,,,0.00,WUHU216HW,2013-09-07 19:43:00,
2013-09-07 15:48:00,84.6,68.2,29.93,North,0,0.0,0.0,58,0.00,,,0.00,WUHU216HW,2013-09-07 19:48:00,
2013-09-07 15:53:00,84.6,67.7,29.93,North,0,0.0,0.0,57,0.00,,,0.00,WUHU216HW,2013-09-07 19:53:00,
2013-09-07 15:58:00,84.6,67.7,29.93,North,0,0.0,0.0,57,0.00,,,0.00,WUHU216HW,2013-09-07 19:58:00,
2013-09-07 16:03:00,84.6,67.7,29.93,North,0,0.0,0.0,57,0.00,,,0.00,WUHU216HW,2013-09-07 20:03:00,
2013-09-07 16:08:00,84.6,67.7,29.93,North,0,0.0,0.0,57,0.00,,,0.00,WUHU216HW,2013-09-07 20:08:00,
2013-09-07 16:14:00,84.4,68.0,29.92,North,0,0.0,0.0,58,0.00,,,0.00,WUHU216HW,2013-09-07 20:14:00,
2013-09-07 16:19:00,84.2,67.4,29.92,North,0,0.0,0.0,57,0.00,,,0.00,WUHU216HW,2013-09-07 20:19:00,
2013-09-07 16:24:00,84.2,67.9,29.92,North,0,0.0,0.0,58,0.00,,,0.00,WUHU216HW,2013-09-07 20:24:00,
2013-09-07 16:29:00,84.1,67.2,29.92,North,0,0.0,0.0,57,0.00,,,0.00,WUHU216HW,2013-09-07 20:29:00,
2013-09-07 16:34:00,83.9,67.1,29.92,North,0,0.0,0.0,57,0.00,,,0.00,WUHU216HW,2013-09-07 20:34:00,
2013-09-07 16:39:00,83.9,67.1,29.92,North,0,0.0,0.0,57,0.00,,,0.00,WUHU216HW,2013-09-07 20:39:00,
2013-09-07 16:44:00,83.9,67.1,29.92,North,0,0.0,0.0,57,0.00,,,0.00,WUHU216HW,2013-09-07 20:44:00,
2013-09-07 16:49:00,83.9,67.1,29.92,North,0,0.0,0.0,57,0.00,,,0.00,WUHU216HW,2013-09-07 20:49:00,
2013-09-07 16:54:00,83.9,67.5,29.91,North,0,0.0,0.0,58,0.00,,,0.00,WUHU216HW,2013-09-07 20:54:00,
2013-09-07 16:59:00,83.7,66.9,29.91,North,0,0.0,0.0,57,0.00,,,0.00,WUHU216HW,2013-09-07 20:59:00,
2013-09-07 17:05:00,83.5,66.7,29.91,North,0,0.0,0.0,57,0.00,,,0.00,WUHU216HW,2013-09-07 21:05:00,
2013-09-07 17:10:00,83.3,66.5,29.91,North,0,0.0,0.0,57,0.00,,,0.00,WUHU216HW,2013-09-07 21:10:00,
2013-09-07 17:15:00,83.2,66.3,29.91,North,0,0.0,0.0,57,0.00,,,0.00,WUHU216HW,2013-09-07 21:15:00,
2013-09-07 17:20:00,83.2,66.3,29.91,North,0,0.0,0.0,57,0.00,,,0.00,WUHU216HW,2013-09-07 21:20:00,
2013-09-07 17:25:00,83.2,66.3,29.91,North,0,0.0,0.0,57,0.00,,,0.00,WUHU216HW,2013-09-07 21:25:00,
2013-09-07 17:30:00,83.0,66.2,29.91,North,0,0.0,0.0,57,0.00,,,0.00,WUHU216HW,2013-09-07 21:30:00,
2013-09-07 17:35:00,82.8,66.0,29.91,North,0,0.0,0.0,57,0.00,,,0.00,WUHU216HW,2013-09-07 21:35:00,
2013-09-07 17:40:00,82.6,66.2,29.91,North,0,0.0,0.0,58,0.00,,,0.00,WUHU216HW,2013-09-07 21:40:00,
2013-09-07 17:45:00,82.4,66.1,29.90,North,0,0.0,0.0,58,0.00,,,0.00,WUHU216HW,2013-09-07 21:45:00,
2013-09-07 17:50:00,82.3,66.0,29.90,North,0,0.0,0.0,58,0.00,,,0.00,WUHU216HW,2013-09-07 21:50:00,
2013-09-07 17:55:00,82.1,65.8,29.91,North,0,0.0,0.0,58,0.00,,,0.00,WUHU216HW,2013-09-07 21:55:00,
2013-09-07 18:01:00,81.9,65.6,29.91,North,0,0.0,0.0,58,0.00,,,0.00,WUHU216HW,2013-09-07 22:01:00,
2013-09-07 18:06:00,81.7,65.4,29.90,North,0,0.0,0.0,58,0.00,,,0.00,WUHU216HW,2013-09-07 22:06:00,
2013-09-07 18:11:00,81.4,65.2,29.90,North,0,0.0,0.0,58,0.00,,,0.00,WUHU216HW,2013-09-07 22:11:00,
2013-09-07 18:16:00,81.4,65.6,29.90,North,0,0.0,0.0,59,0.00,,,0.00,WUHU216HW,2013-09-07 22:16:00,
2013-09-07 18:21:00,81.2,65.5,29.90,North,0,0.0,0.0,59,0.00,,,0.00,WUHU216HW,2013-09-07 22:21:00,
2013-09-07 18:26:00,81.0,65.9,29.90,North,0,0.0,0.0,60,0.00,,,0.00,WUHU216HW,2013-09-07 22:26:00,
2013-09-07 18:31:00,80.6,65.5,29.90,North,0,0.0,0.0,60,0.00,,,0.00,WUHU216HW,2013-09-07 22:31:00,
2013-09-07 18:36:00,80.6,65.5,29.90,North,0,0.0,0.0,60,0.00,,,0.00,WUHU216HW,2013-09-07 22:36:00,
2013-09-07 18:41:00,80.3,65.2,29.89,North,0,0.0,0.0,60,0.00,,,0.00,WUHU216HW,2013-09-07 22:41:00,
2013-09-07 18:46:00,80.3,65.6,29.90,North,0,0.0,0.0,61,0.00,,,0.00,WUHU216HW,2013-09-07 22:46:00,
2013-09-07 18:51:00,79.9,65.4,29.90,North,0,0.0,0.0,61,0.00,,,0.00,WUHU216HW,2013-09-07 22:51:00,
2013-09-07 18:56:00,79.7,65.6,29.89,North,0,0.0,0.0,62,0.00,,,0.00,WUHU216HW,2013-09-07 22:56:00,
2013-09-07 19:02:00,79.6,65.4,29.89,North,0,0.0,0.0,62,0.00,,,0.00,WUHU216HW,2013-09-07 23:02:00,
2013-09-07 19:07:00,79.4,65.7,29.90,North,0,0.0,0.0,63,0.00,,,0.00,WUHU216HW,2013-09-07 23:07:00,
2013-09-07 19:12:00,79.2,65.5,29.89,North,0,0.0,0.0,63,0.00,,,0.00,WUHU216HW,2013-09-07 23:12:00,
2013-09-07 19:17:00,79.0,65.3,29.89,North,0,0.0,0.0,63,0.00,,,0.00,WUHU216HW,2013-09-07 23:17:00,
2013-09-07 19:22:00,78.8,65.6,29.89,North,0,0.0,0.0,64,0.00,,,0.00,WUHU216HW,2013-09-07 23:22:00,
2013-09-07 19:27:00,78.7,65.4,29.89,North,0,0.0,0.0,64,0.00,,,0.00,WUHU216HW,2013-09-07 23:27:00,
2013-09-07 19:32:00,78.5,65.7,29.89,North,0,0.0,0.0,65,0.00,,,0.00,WUHU216HW,2013-09-07 23:32:00,
2013-09-07 19:37:00,78.1,65.8,29.89,North,0,0.0,0.0,66,0.00,,,0.00,WUHU216HW,2013-09-07 23:37:00,
2013-09-07 19:42:00,77.9,65.6,29.90,North,0,0.0,0.0,66,0.00,,,0.00,WUHU216HW,2013-09-07 23:42:00,
2013-09-07 19:47:00,77.8,65.5,29.90,North,0,0.0,0.0,66,0.00,,,0.00,WUHU216HW,2013-09-07 23:47:00,
2013-09-07 19:53:00,77.4,65.2,29.90,North,0,0.0,0.0,66,0.00,,,0.00,WUHU216HW,2013-09-07 23:53:00,
2013-09-07 19:58:00,77.2,65.4,29.90,North,0,0.0,0.0,67,0.00,,,0.00,WUHU216HW,2013-09-07 23:58:00,
2013-09-07 20:03:00,77.0,65.3,29.90,North,0,0.0,0.0,67,0.00,,,0.00,WUHU216HW,2013-09-08 00:03:00,
2013-09-07 20:08:00,76.7,65.3,29.90,North,0,0.0,0.0,68,0.00,,,0.00,WUHU216HW,2013-09-08 00:08:00,
2013-09-07 20:13:00,76.5,65.2,29.90,North,0,0.0,0.0,68,0.00,,,0.00,WUHU216HW,2013-09-08 00:13:00,
2013-09-07 20:18:00,76.3,65.0,29.90,North,0,0.0,0.0,68,0.00,,,0.00,WUHU216HW,2013-09-08 00:18:00,
2013-09-07 20:23:00,76.0,64.6,29.90,North,0,0.0,0.0,68,0.00,,,0.00,WUHU216HW,2013-09-08 00:23:00,
2013-09-07 20:28:00,75.8,64.9,29.91,North,0,0.0,0.0,69,0.00,,,0.00,WUHU216HW,2013-09-08 00:28:00,
2013-09-07 20:33:00,75.6,64.7,29.91,North,0,0.0,0.0,69,0.00,,,0.00,WUHU216HW,2013-09-08 00:33:00,
2013-09-07 20:38:00,75.2,64.8,29.91,North,0,0.0,0.0,70,0.00,,,0.00,WUHU216HW,2013-09-08 00:38:00,
2013-09-07 20:43:00,75.2,64.8,29.91,North,0,0.0,0.0,70,0.00,,,0.00,WUHU216HW,2013-09-08 00:43:00,
2013-09-07 20:48:00,74.9,64.9,29.91,North,0,0.0,0.0,71,0.00,,,0.00,WUHU216HW,2013-09-08 00:48:00,
2013-09-07 20:54:00,74.7,64.7,29.90,North,0,0.0,0.0,71,0.00,,,0.00,WUHU216HW,2013-09-08 00:54:00,
2013-09-07 20:59:00,74.5,64.5,29.91,North,0,0.0,0.0,71,0.00,,,0.00,WUHU216HW,2013-09-08 00:59:00,
2013-09-07 21:04:00,74.3,64.4,29.91,North,0,0.0,0.0,71,0.00,,,0.00,WUHU216HW,2013-09-08 01:04:00,
2013-09-07 21:09:00,74.2,64.2,29.91,North,0,0.0,0.0,71,0.00,,,0.00,WUHU216HW,2013-09-08 01:09:00,
2013-09-07 21:14:00,74.0,64.5,29.91,North,0,0.0,0.0,72,0.00,,,0.00,WUHU216HW,2013-09-08 01:14:00,
2013-09-07 21:19:00,73.8,64.3,29.91,North,0,0.0,0.0,72,0.00,,,0.00,WUHU216HW,2013-09-08 01:19:00,
2013-09-07 21:24:00,73.6,64.4,29.91,North,0,0.0,0.0,73,0.00,,,0.00,WUHU216HW,2013-09-08 01:24:00,
2013-09-07 21:29:00,73.4,64.4,29.91,North,0,0.0,0.0,73,0.00,,,0.00,WUHU216HW,2013-09-08 01:29:00,
2013-09-07 21:34:00,73.3,64.5,29.91,North,0,0.0,0.0,74,0.00,,,0.00,WUHU216HW,2013-09-08 01:34:00,
2013-09-07 21:39:00,73.1,64.4,29.91,North,0,0.0,0.0,74,0.00,,,0.00,WUHU216HW,2013-09-08 01:39:00,
2013-09-07 21:45:00,73.1,64.4,29.91,North,0,0.0,0.0,74,0.00,,,0.00,WUHU216HW,2013-09-08 01:45:00,
2013-09-07 21:50:00,72.9,64.5,29.91,North,0,0.0,0.0,75,0.00,,,0.00,WUHU216HW,2013-09-08 01:50:00,
2013-09-07 21:55:00,72.7,64.4,29.91,North,0,0.0,0.0,75,0.00,,,0.00,WUHU216HW,2013-09-08 01:55:00,
2013-09-07 22:00:00,72.5,64.2,29.91,North,0,0.0,0.0,75,0.00,,,0.00,WUHU216HW,2013-09-08 02:00:00,
2013-09-07 22:05:00,72.4,64.0,29.91,North,0,0.0,0.0,75,0.00,,,0.00,WUHU216HW,2013-09-08 02:05:00,
2013-09-07 22:10:00,72.4,64.0,29.91,North,0,0.0,0.0,75,0.00,,,0.00,WUHU216HW,2013-09-08 02:10:00,
2013-09-07 22:15:00,72.2,63.8,29.91,North,0,0.0,0.0,75,0.00,,,0.00,WUHU216HW,2013-09-08 02:15:00,
2013-09-07 22:20:00,72.0,63.6,29.91,North,0,0.0,0.0,75,0.00,,,0.00,WUHU216HW,2013-09-08 02:20:00,
2013-09-07 22:25:00,72.0,63.6,29.91,North,0,0.0,0.0,75,0.00,,,0.00,WUHU216HW,2013-09-08 02:25:00,
2013-09-07 22:31:00,71.8,63.5,29.91,North,0,0.0,0.0,75,0.00,,,0.00,WUHU216HW,2013-09-08 02:31:00,
2013-09-07 22:36:00,71.6,63.6,29.91,North,0,0.0,0.0,76,0.00,,,0.00,WUHU216HW,2013-09-08 02:36:00,
2013-09-07 22:41:00,71.6,63.6,29.91,North,0,0.0,0.0,76,0.00,,,0.00,WUHU216HW,2013-09-08 02:41:00,
2013-09-07 22:46:00,71.5,63.5,29.91,North,0,0.0,0.0,76,0.00,,,0.00,WUHU216HW,2013-09-08 02:46:00,
2013-09-07 22:51:00,71.5,63.8,29.91,North,0,0.0,0.0,77,0.00,,,0.00,WUHU216HW,2013-09-08 02:51:00,
2013-09-07 22:56:00,71.3,63.6,29.91,North,0,0.0,0.0,77,0.00,,,0.00,WUHU216HW,2013-09-08 02:56:00,
2013-09-07 23:01:00,71.1,63.5,29.91,North,0,0.0,0.0,77,0.00,,,0.00,WUHU216HW,2013-09-08 03:01:00,
2013-09-07 23:06:00,71.1,63.5,29.91,North,0,0.0,0.0,77,0.00,,,0.00,WUHU216HW,2013-09-08 03:06:00,
2013-09-07 23:11:00,70.9,63.3,29.91,North,0,0.0,0.0,77,0.00,,,0.00,WUHU216HW,2013-09-08 03:11:00,
2013-09-07 23:17:00,70.9,63.7,29.91,North,0,0.0,0.0,78,0.00,,,0.00,WUHU216HW,2013-09-08 03:17:00,
2013-09-07 23:22:00,70.9,63.7,29.91,North,0,0.0,0.0,78,0.00,,,0.00,WUHU216HW,2013-09-08 03:22:00,
2013-09-07 23:27:00,70.7,63.6,29.91,North,0,0.0,0.0,78,0.00,,,0.00,WUHU216HW,2013-09-08 03:27:00,
2013-09-07 23:32:00,70.6,63.4,29.91,North,0,0.0,0.0,78,0.00,,,0.00,WUHU216HW,2013-09-08 03:32:00,
2013-09-07 23:37:00,70.6,63.4,29.91,North,0,0.0,0.0,78,0.00,,,0.00,WUHU216HW,2013-09-08 03:37:00,
2013-09-07 23:42:00,70.6,63.7,29.91,North,0,0.0,0.0,79,0.00,,,0.00,WUHU216HW,2013-09-08 03:42:00,
2013-09-07 23:47:00,70.4,63.6,29.90,North,0,0.0,0.0,79,0.00,,,0.00,WUHU216HW,2013-09-08 03:47:00,
2013-09-07 23:52:00,70.4,63.6,29.90,North,0,0.0,0.0,79,0.00,,,0.00,WUHU216HW,2013-09-08 03:52:00,
2013-09-07 23:57:00,70.2,63.4,29.90,North,0,0.0,0.0,79,0.00,,,0.00,WUHU216HW,2013-09-08 03:57:00,